sensor_id;sensor_type;location;lat;lon;timestamp;pressure;altitude;pressure_sealevel;temperature;humidity
4586;BME280;2305;50.118;8.952;2022-09-09T00:02:19;100063.69;;;17.74;100.00
4586;BME280;2305;50.118;8.952;2022-09-09T00:04:58;100060.22;;;17.74;100.00
4586;BME280;2305;50.118;8.952;2022-09-09T00:07:40;100056.16;;;17.78;100.00
4586;BME280;2305;50.118;8.952;2022-09-09T00:10:17;100051.22;;;17.75;100.00
4586;BME280;2305;50.118;8.952;2022-09-09T00:13:04;100050.56;;;17.73;100.00
4586;BME280;2305;50.118;8.952;2022-09-09T00:15:39;100045.41;;;17.71;100.00
4586;BME280;2305;50.118;8.952;2022-09-09T00:18:15;100042.38;;;17.74;100.00
4586;BME280;2305;50.118;8.952;2022-09-09T00:20:48;100052.00;;;17.75;100.00
4586;BME280;2305;50.118;8.952;2022-09-09T00:23:24;100042.84;;;17.78;100.00
4586;BME280;2305;50.118;8.952;2022-09-09T00:25:58;100037.34;;;17.79;100.00
4586;BME280;2305;50.118;8.952;2022-09-09T00:28:28;100044.81;;;17.84;100.00
4586;BME280;2305;50.118;8.952;2022-09-09T00:31:01;100035.31;;;17.81;100.00
4586;BME280;2305;50.118;8.952;2022-09-09T00:33:37;100036.31;;;17.80;100.00
4586;BME280;2305;50.118;8.952;2022-09-09T00:36:10;100033.84;;;17.79;100.00
4586;BME280;2305;50.118;8.952;2022-09-09T00:38:42;100031.06;;;17.72;100.00
4586;BME280;2305;50.118;8.952;2022-09-09T00:41:18;100030.97;;;17.66;100.00
4586;BME280;2305;50.118;8.952;2022-09-09T00:43:56;100030.97;;;17.66;100.00
4586;BME280;2305;50.118;8.952;2022-09-09T00:46:53;100032.47;;;17.60;100.00
4586;BME280;2305;50.118;8.952;2022-09-09T00:49:32;100026.66;;;17.57;100.00
4586;BME280;2305;50.118;8.952;2022-09-09T00:52:16;100025.38;;;17.53;100.00
4586;BME280;2305;50.118;8.952;2022-09-09T00:54:52;100033.41;;;17.45;100.00
4586;BME280;2305;50.118;8.952;2022-09-09T00:57:27;100032.25;;;17.39;100.00
4586;BME280;2305;50.118;8.952;2022-09-09T01:00:00;100033.09;;;17.40;100.00
4586;BME280;2305;50.118;8.952;2022-09-09T01:02:39;100035.25;;;17.36;100.00
4586;BME280;2305;50.118;8.952;2022-09-09T01:05:19;100044.00;;;17.22;100.00
4586;BME280;2305;50.118;8.952;2022-09-09T01:07:49;100043.16;;;17.22;100.00
4586;BME280;2305;50.118;8.952;2022-09-09T01:10:30;100044.34;;;17.19;100.00
4586;BME280;2305;50.118;8.952;2022-09-09T01:13:05;100038.38;;;17.09;100.00
4586;BME280;2305;50.118;8.952;2022-09-09T01:15:38;100040.72;;;17.04;100.00
4586;BME280;2305;50.118;8.952;2022-09-09T01:18:13;100034.59;;;17.04;100.00
4586;BME280;2305;50.118;8.952;2022-09-09T01:20:49;100035.88;;;17.08;100.00
4586;BME280;2305;50.118;8.952;2022-09-09T01:23:33;100039.56;;;17.07;100.00
4586;BME280;2305;50.118;8.952;2022-09-09T01:26:33;100039.88;;;17.12;100.00
4586;BME280;2305;50.118;8.952;2022-09-09T01:29:08;100032.53;;;17.14;100.00
4586;BME280;2305;50.118;8.952;2022-09-09T01:31:41;100021.59;;;17.09;100.00
4586;BME280;2305;50.118;8.952;2022-09-09T01:34:11;100032.56;;;17.06;100.00
4586;BME280;2305;50.118;8.952;2022-09-09T01:36:44;100026.28;;;16.99;100.00
4586;BME280;2305;50.118;8.952;2022-09-09T01:39:14;100025.25;;;17.08;100.00
4586;BME280;2305;50.118;8.952;2022-09-09T01:41:45;100016.28;;;17.09;100.00
4586;BME280;2305;50.118;8.952;2022-09-09T01:44:16;100017.56;;;17.13;100.00
4586;BME280;2305;50.118;8.952;2022-09-09T01:46:45;100013.13;;;16.97;100.00
4586;BME280;2305;50.118;8.952;2022-09-09T01:49:17;100017.81;;;16.95;100.00
4586;BME280;2305;50.118;8.952;2022-09-09T01:51:49;100014.84;;;16.90;100.00
4586;BME280;2305;50.118;8.952;2022-09-09T01:54:26;100022.81;;;16.90;100.00
4586;BME280;2305;50.118;8.952;2022-09-09T01:57:06;100028.13;;;16.90;100.00
4586;BME280;2305;50.118;8.952;2022-09-09T01:59:50;100025.69;;;16.89;100.00
4586;BME280;2305;50.118;8.952;2022-09-09T02:02:26;100020.38;;;16.81;100.00
4586;BME280;2305;50.118;8.952;2022-09-09T02:05:14;100015.88;;;16.81;100.00
4586;BME280;2305;50.118;8.952;2022-09-09T02:07:47;100021.72;;;16.77;100.00
4586;BME280;2305;50.118;8.952;2022-09-09T02:10:35;100021.72;;;16.77;100.00
4586;BME280;2305;50.118;8.952;2022-09-09T02:13:16;100023.84;;;16.81;100.00
4586;BME280;2305;50.118;8.952;2022-09-09T02:15:51;100031.03;;;16.81;100.00
4586;BME280;2305;50.118;8.952;2022-09-09T02:18:24;100025.38;;;16.76;100.00
4586;BME280;2305;50.118;8.952;2022-09-09T02:20:56;100028.06;;;16.68;100.00
4586;BME280;2305;50.118;8.952;2022-09-09T02:23:26;100029.72;;;16.69;100.00
4586;BME280;2305;50.118;8.952;2022-09-09T02:25:56;100031.88;;;16.73;100.00
4586;BME280;2305;50.118;8.952;2022-09-09T02:28:28;100026.38;;;16.75;100.00
4586;BME280;2305;50.118;8.952;2022-09-09T02:30:58;100032.53;;;16.75;100.00
4586;BME280;2305;50.118;8.952;2022-09-09T02:33:37;100028.97;;;16.91;100.00
4586;BME280;2305;50.118;8.952;2022-09-09T02:36:08;100027.66;;;16.87;100.00
4586;BME280;2305;50.118;8.952;2022-09-09T02:38:42;100037.53;;;16.78;100.00
4586;BME280;2305;50.118;8.952;2022-09-09T02:41:18;100024.22;;;16.78;100.00
4586;BME280;2305;50.118;8.952;2022-09-09T02:43:49;100027.50;;;16.88;100.00
4586;BME280;2305;50.118;8.952;2022-09-09T02:46:36;100029.34;;;16.88;100.00
4586;BME280;2305;50.118;8.952;2022-09-09T02:49:11;100040.31;;;16.85;100.00
4586;BME280;2305;50.118;8.952;2022-09-09T02:51:50;100029.66;;;16.85;100.00
4586;BME280;2305;50.118;8.952;2022-09-09T02:54:27;100032.97;;;16.87;100.00
4586;BME280;2305;50.118;8.952;2022-09-09T02:57:03;100029.34;;;16.88;100.00
4586;BME280;2305;50.118;8.952;2022-09-09T02:59:40;100033.94;;;16.94;100.00
4586;BME280;2305;50.118;8.952;2022-09-09T03:02:08;100038.09;;;16.96;100.00
4586;BME280;2305;50.118;8.952;2022-09-09T03:04:37;100031.28;;;17.02;100.00
4586;BME280;2305;50.118;8.952;2022-09-09T03:07:07;100040.72;;;17.04;100.00
4586;BME280;2305;50.118;8.952;2022-09-09T03:09:36;100041.72;;;17.03;100.00
4586;BME280;2305;50.118;8.952;2022-09-09T03:12:04;100042.53;;;17.12;100.00
4586;BME280;2305;50.118;8.952;2022-09-09T03:14:33;100033.13;;;17.32;100.00
4586;BME280;2305;50.118;8.952;2022-09-09T03:17:03;100039.84;;;17.20;100.00
4586;BME280;2305;50.118;8.952;2022-09-09T03:19:36;100036.22;;;17.13;100.00
4586;BME280;2305;50.118;8.952;2022-09-09T03:22:07;100030.56;;;17.16;100.00
4586;BME280;2305;50.118;8.952;2022-09-09T03:24:40;100033.22;;;17.16;100.00
4586;BME280;2305;50.118;8.952;2022-09-09T03:27:08;100024.88;;;17.19;100.00
4586;BME280;2305;50.118;8.952;2022-09-09T03:29:38;100023.22;;;17.18;100.00
4586;BME280;2305;50.118;8.952;2022-09-09T03:32:12;100023.66;;;17.29;100.00
4586;BME280;2305;50.118;8.952;2022-09-09T03:34:40;100026.53;;;17.20;100.00
4586;BME280;2305;50.118;8.952;2022-09-09T03:37:11;100027.88;;;17.16;100.00
4586;BME280;2305;50.118;8.952;2022-09-09T03:39:39;100019.72;;;17.17;100.00
4586;BME280;2305;50.118;8.952;2022-09-09T03:42:12;100024.91;;;17.11;100.00
4586;BME280;2305;50.118;8.952;2022-09-09T03:44:40;100026.09;;;17.08;100.00
4586;BME280;2305;50.118;8.952;2022-09-09T03:47:08;100029.28;;;17.04;100.00
4586;BME280;2305;50.118;8.952;2022-09-09T03:49:38;100024.28;;;17.01;100.00
4586;BME280;2305;50.118;8.952;2022-09-09T03:52:06;100036.94;;;16.99;100.00
4586;BME280;2305;50.118;8.952;2022-09-09T03:54:35;100027.13;;;16.99;100.00
4586;BME280;2305;50.118;8.952;2022-09-09T03:57:04;100027.16;;;16.91;100.00
4586;BME280;2305;50.118;8.952;2022-09-09T03:59:32;100024.84;;;16.88;100.00
4586;BME280;2305;50.118;8.952;2022-09-09T04:02:02;100023.19;;;16.87;100.00
4586;BME280;2305;50.118;8.952;2022-09-09T04:04:30;100026.84;;;16.86;100.00
4586;BME280;2305;50.118;8.952;2022-09-09T04:07:00;100018.22;;;16.84;100.00
4586;BME280;2305;50.118;8.952;2022-09-09T04:09:28;100018.22;;;16.84;100.00
4586;BME280;2305;50.118;8.952;2022-09-09T04:11:55;100011.19;;;16.83;100.00
4586;BME280;2305;50.118;8.952;2022-09-09T04:14:23;100012.69;;;16.86;100.00
4586;BME280;2305;50.118;8.952;2022-09-09T04:16:58;100015.34;;;16.86;100.00
4586;BME280;2305;50.118;8.952;2022-09-09T04:19:26;100023.53;;;16.84;100.00
4586;BME280;2305;50.118;8.952;2022-09-09T04:21:57;100024.16;;;16.94;100.00
4586;BME280;2305;50.118;8.952;2022-09-09T04:24:27;100017.00;;;16.87;100.00
4586;BME280;2305;50.118;8.952;2022-09-09T04:26:55;100024.69;;;16.82;100.00
4586;BME280;2305;50.118;8.952;2022-09-09T04:29:24;100027.88;;;16.77;100.00
4586;BME280;2305;50.118;8.952;2022-09-09T04:31:54;100016.41;;;16.77;100.00
4586;BME280;2305;50.118;8.952;2022-09-09T04:34:25;100025.72;;;16.73;100.00
4586;BME280;2305;50.118;8.952;2022-09-09T04:36:54;100029.38;;;16.72;100.00
4586;BME280;2305;50.118;8.952;2022-09-09T04:39:23;100029.03;;;16.75;100.00
4586;BME280;2305;50.118;8.952;2022-09-09T04:41:52;100025.03;;;16.79;100.00
4586;BME280;2305;50.118;8.952;2022-09-09T04:44:21;100018.91;;;16.78;100.00
4586;BME280;2305;50.118;8.952;2022-09-09T04:46:49;100027.69;;;16.79;100.00
4586;BME280;2305;50.118;8.952;2022-09-09T04:49:17;100022.19;;;16.80;100.00
4586;BME280;2305;50.118;8.952;2022-09-09T04:51:45;100017.38;;;16.84;100.00
4586;BME280;2305;50.118;8.952;2022-09-09T04:54:13;100024.50;;;16.83;100.00
4586;BME280;2305;50.118;8.952;2022-09-09T04:56:43;100023.69;;;16.83;100.00
4586;BME280;2305;50.118;8.952;2022-09-09T04:59:12;100026.03;;;16.78;100.00
4586;BME280;2305;50.118;8.952;2022-09-09T05:01:46;100029.69;;;16.77;100.00
4586;BME280;2305;50.118;8.952;2022-09-09T05:04:14;100028.84;;;16.76;100.00
4586;BME280;2305;50.118;8.952;2022-09-09T05:06:42;100030.53;;;16.77;100.00
4586;BME280;2305;50.118;8.952;2022-09-09T05:09:12;100041.69;;;16.81;100.00
4586;BME280;2305;50.118;8.952;2022-09-09T05:11:44;100034.00;;;16.78;100.00
4586;BME280;2305;50.118;8.952;2022-09-09T05:14:33;100042.31;;;16.83;100.00
4586;BME280;2305;50.118;8.952;2022-09-09T05:17:04;100034.19;;;16.84;100.00
4586;BME280;2305;50.118;8.952;2022-09-09T05:19:34;100042.47;;;16.89;100.00
4586;BME280;2305;50.118;8.952;2022-09-09T05:22:02;100045.59;;;16.93;100.00
4586;BME280;2305;50.118;8.952;2022-09-09T05:24:38;100044.91;;;16.99;100.00
4586;BME280;2305;50.118;8.952;2022-09-09T05:27:07;100046.78;;;16.98;100.00
4586;BME280;2305;50.118;8.952;2022-09-09T05:29:40;100058.19;;;17.07;100.00
4586;BME280;2305;50.118;8.952;2022-09-09T05:32:12;100059.53;;;17.11;100.00
4586;BME280;2305;50.118;8.952;2022-09-09T05:34:43;100071.31;;;17.16;100.00
4586;BME280;2305;50.118;8.952;2022-09-09T05:37:11;100070.13;;;17.19;100.00
4586;BME280;2305;50.118;8.952;2022-09-09T05:39:39;100074.13;;;17.23;100.00
4586;BME280;2305;50.118;8.952;2022-09-09T05:42:09;100076.56;;;17.32;100.00
4586;BME280;2305;50.118;8.952;2022-09-09T05:44:37;100074.25;;;17.37;100.00
4586;BME280;2305;50.118;8.952;2022-09-09T05:47:07;100076.22;;;17.35;100.00
4586;BME280;2305;50.118;8.952;2022-09-09T05:49:36;100070.78;;;17.59;100.00
4586;BME280;2305;50.118;8.952;2022-09-09T05:52:06;100078.44;;;17.62;100.00
4586;BME280;2305;50.118;8.952;2022-09-09T05:54:34;100079.06;;;17.95;100.00
4586;BME280;2305;50.118;8.952;2022-09-09T05:57:04;100084.03;;;17.98;100.00
4586;BME280;2305;50.118;8.952;2022-09-09T05:59:32;100080.88;;;17.94;100.00
4586;BME280;2305;50.118;8.952;2022-09-09T06:02:01;100080.81;;;18.02;100.00
4586;BME280;2305;50.118;8.952;2022-09-09T06:04:35;100086.28;;;18.09;100.00
4586;BME280;2305;50.118;8.952;2022-09-09T06:07:04;100080.69;;;18.18;100.00
4586;BME280;2305;50.118;8.952;2022-09-09T06:09:32;100084.56;;;18.16;100.00
4586;BME280;2305;50.118;8.952;2022-09-09T06:12:03;100086.47;;;18.22;100.00
4586;BME280;2305;50.118;8.952;2022-09-09T06:14:34;100093.91;;;18.12;100.00
4586;BME280;2305;50.118;8.952;2022-09-09T06:17:03;100097.81;;;18.01;100.00
4586;BME280;2305;50.118;8.952;2022-09-09T06:19:37;100092.56;;;17.93;100.00
4586;BME280;2305;50.118;8.952;2022-09-09T06:22:06;100100.06;;;17.90;100.00
4586;BME280;2305;50.118;8.952;2022-09-09T06:24:36;100095.16;;;18.01;100.00
4586;BME280;2305;50.118;8.952;2022-09-09T06:27:05;100102.22;;;18.17;100.00
4586;BME280;2305;50.118;8.952;2022-09-09T06:29:35;100101.38;;;18.16;100.00
4586;BME280;2305;50.118;8.952;2022-09-09T06:32:04;100108.56;;;18.16;100.00
4586;BME280;2305;50.118;8.952;2022-09-09T06:34:34;100095.03;;;18.17;100.00
4586;BME280;2305;50.118;8.952;2022-09-09T06:37:04;100101.84;;;18.20;100.00
4586;BME280;2305;50.118;8.952;2022-09-09T06:39:41;100091.31;;;18.26;100.00
4586;BME280;2305;50.118;8.952;2022-09-09T06:42:09;100093.03;;;18.19;100.00
4586;BME280;2305;50.118;8.952;2022-09-09T06:45:00;100091.34;;;18.18;100.00
4586;BME280;2305;50.118;8.952;2022-09-09T06:47:44;100089.69;;;18.17;100.00
4586;BME280;2305;50.118;8.952;2022-09-09T06:50:13;100084.28;;;18.33;100.00
4586;BME280;2305;50.118;8.952;2022-09-09T06:52:47;100090.56;;;18.55;100.00
4586;BME280;2305;50.118;8.952;2022-09-09T06:55:15;100093.66;;;18.81;100.00
4586;BME280;2305;50.118;8.952;2022-09-09T06:57:44;100090.72;;;18.90;100.00
4586;BME280;2305;50.118;8.952;2022-09-09T07:00:16;100088.59;;;19.00;100.00
4586;BME280;2305;50.118;8.952;2022-09-09T07:02:44;100088.50;;;18.93;100.00
4586;BME280;2305;50.118;8.952;2022-09-09T07:05:13;100087.75;;;18.99;100.00
4586;BME280;2305;50.118;8.952;2022-09-09T07:07:43;100091.53;;;19.05;100.00
4586;BME280;2305;50.118;8.952;2022-09-09T07:10:14;100092.13;;;19.29;100.00
4586;BME280;2305;50.118;8.952;2022-09-09T07:12:43;100101.03;;;19.22;100.00
4586;BME280;2305;50.118;8.952;2022-09-09T07:15:14;100090.63;;;19.27;100.00
4586;BME280;2305;50.118;8.952;2022-09-09T07:17:44;100092.75;;;19.31;100.00
4586;BME280;2305;50.118;8.952;2022-09-09T07:20:13;100091.09;;;19.30;100.00
4586;BME280;2305;50.118;8.952;2022-09-09T07:22:42;100104.63;;;19.43;100.00
4586;BME280;2305;50.118;8.952;2022-09-09T07:25:14;100105.59;;;19.57;100.00
4586;BME280;2305;50.118;8.952;2022-09-09T07:27:44;100092.63;;;19.54;100.00
4586;BME280;2305;50.118;8.952;2022-09-09T07:30:13;100101.47;;;19.54;100.00
4586;BME280;2305;50.118;8.952;2022-09-09T07:32:50;100114.06;;;19.60;100.00
4586;BME280;2305;50.118;8.952;2022-09-09T07:35:19;100107.97;;;19.66;100.00
4586;BME280;2305;50.118;8.952;2022-09-09T07:37:46;100106.78;;;19.69;100.00
4586;BME280;2305;50.118;8.952;2022-09-09T07:40:20;100113.16;;;19.68;100.00
4586;BME280;2305;50.118;8.952;2022-09-09T07:42:50;100111.97;;;19.56;100.00
4586;BME280;2305;50.118;8.952;2022-09-09T07:45:20;100119.03;;;19.63;100.00
4586;BME280;2305;50.118;8.952;2022-09-09T07:47:48;100115.00;;;19.53;100.00
4586;BME280;2305;50.118;8.952;2022-09-09T07:50:17;100111.41;;;19.46;100.00
4586;BME280;2305;50.118;8.952;2022-09-09T07:52:45;100100.88;;;19.59;100.00
4586;BME280;2305;50.118;8.952;2022-09-09T07:55:13;100113.34;;;19.52;100.00
4586;BME280;2305;50.118;8.952;2022-09-09T07:57:44;100114.72;;;19.62;100.00
4586;BME280;2305;50.118;8.952;2022-09-09T08:00:14;100113.63;;;19.57;100.00
4586;BME280;2305;50.118;8.952;2022-09-09T08:02:47;100125.41;;;19.62;100.00
4586;BME280;2305;50.118;8.952;2022-09-09T08:05:16;100124.94;;;19.73;100.00
4586;BME280;2305;50.118;8.952;2022-09-09T08:07:44;100123.38;;;19.64;100.00
4586;BME280;2305;50.118;8.952;2022-09-09T08:10:14;100125.22;;;19.78;100.00
4586;BME280;2305;50.118;8.952;2022-09-09T08:12:45;100128.25;;;19.75;100.00
4586;BME280;2305;50.118;8.952;2022-09-09T08:15:33;100145.19;;;19.82;100.00
4586;BME280;2305;50.118;8.952;2022-09-09T08:18:01;100150.53;;;19.82;100.00
4586;BME280;2305;50.118;8.952;2022-09-09T08:20:29;100145.00;;;19.84;100.00
4586;BME280;2305;50.118;8.952;2022-09-09T08:22:57;100151.03;;;19.92;100.00
4586;BME280;2305;50.118;8.952;2022-09-09T08:25:25;100142.66;;;19.95;100.00
4586;BME280;2305;50.118;8.952;2022-09-09T08:27:54;100154.00;;;19.97;100.00
4586;BME280;2305;50.118;8.952;2022-09-09T08:30:22;100161.66;;;20.00;100.00
4586;BME280;2305;50.118;8.952;2022-09-09T08:32:50;100151.78;;;20.15;100.00
4586;BME280;2305;50.118;8.952;2022-09-09T08:35:20;100150.56;;;20.18;100.00
4586;BME280;2305;50.118;8.952;2022-09-09T08:37:53;100156.47;;;20.13;100.00
4586;BME280;2305;50.118;8.952;2022-09-09T08:40:25;100162.66;;;20.14;100.00
4586;BME280;2305;50.118;8.952;2022-09-09T08:42:59;100161.28;;;20.18;100.00
4586;BME280;2305;50.118;8.952;2022-09-09T08:45:33;100160.59;;;20.16;100.00
4586;BME280;2305;50.118;8.952;2022-09-09T08:48:23;100160.56;;;20.30;100.00
4586;BME280;2305;50.118;8.952;2022-09-09T08:50:57;100164.41;;;20.42;100.00
4586;BME280;2305;50.118;8.952;2022-09-09T08:53:36;100165.66;;;20.46;100.00
4586;BME280;2305;50.118;8.952;2022-09-09T08:56:10;100157.13;;;20.57;100.00
4586;BME280;2305;50.118;8.952;2022-09-09T08:58:49;100179.66;;;20.69;100.00
4586;BME280;2305;50.118;8.952;2022-09-09T09:01:35;100178.06;;;20.75;100.00
4586;BME280;2305;50.118;8.952;2022-09-09T09:04:22;100175.88;;;20.85;100.00
4586;BME280;2305;50.118;8.952;2022-09-09T09:07:05;100169.63;;;20.78;100.00
4586;BME280;2305;50.118;8.952;2022-09-09T09:09:42;100169.72;;;20.63;100.00
4586;BME280;2305;50.118;8.952;2022-09-09T09:12:16;100169.97;;;20.68;100.00
4586;BME280;2305;50.118;8.952;2022-09-09T09:14:47;100159.50;;;20.73;100.00
4586;BME280;2305;50.118;8.952;2022-09-09T09:17:18;100148.97;;;20.93;100.00
4586;BME280;2305;50.118;8.952;2022-09-09T09:19:49;100149.50;;;21.09;100.00
4586;BME280;2305;50.118;8.952;2022-09-09T09:22:20;100142.16;;;21.18;100.00
4586;BME280;2305;50.118;8.952;2022-09-09T09:24:54;100142.34;;;21.16;100.00
4586;BME280;2305;50.118;8.952;2022-09-09T09:27:31;100137.84;;;21.23;100.00
4586;BME280;2305;50.118;8.952;2022-09-09T09:30:15;100137.06;;;21.29;100.00
4586;BME280;2305;50.118;8.952;2022-09-09T09:32:59;100150.84;;;21.26;100.00
4586;BME280;2305;50.118;8.952;2022-09-09T09:35:27;100144.66;;;21.26;100.00
4586;BME280;2305;50.118;8.952;2022-09-09T09:37:55;100137.06;;;21.29;100.00
4586;BME280;2305;50.118;8.952;2022-09-09T09:40:52;100148.16;;;21.26;100.00
4586;BME280;2305;50.118;8.952;2022-09-09T09:43:24;100139.72;;;21.29;100.00
4586;BME280;2305;50.118;8.952;2022-09-09T09:45:56;100149.06;;;21.40;100.00
4586;BME280;2305;50.118;8.952;2022-09-09T09:48:44;100134.66;;;21.47;100.00
4586;BME280;2305;50.118;8.952;2022-09-09T09:51:16;100131.75;;;21.42;100.00
4586;BME280;2305;50.118;8.952;2022-09-09T09:53:45;100124.56;;;21.49;100.00
4586;BME280;2305;50.118;8.952;2022-09-09T09:56:14;100128.06;;;21.43;100.00
4586;BME280;2305;50.118;8.952;2022-09-09T09:58:50;100129.94;;;21.49;100.00
4586;BME280;2305;50.118;8.952;2022-09-09T10:01:26;100138.59;;;21.51;100.00
4586;BME280;2305;50.118;8.952;2022-09-09T10:03:57;100141.75;;;21.27;100.00
4586;BME280;2305;50.118;8.952;2022-09-09T10:06:30;100139.47;;;21.18;100.00
4586;BME280;2305;50.118;8.952;2022-09-09T10:08:59;100148.31;;;21.18;100.00
4586;BME280;2305;50.118;8.952;2022-09-09T10:11:37;100142.19;;;21.31;100.00
4586;BME280;2305;50.118;8.952;2022-09-09T10:14:18;100134.66;;;21.47;100.00
4586;BME280;2305;50.118;8.952;2022-09-09T10:17:00;100129.44;;;21.67;100.00
4586;BME280;2305;50.118;8.952;2022-09-09T10:19:34;100122.44;;;21.79;100.00
4586;BME280;2305;50.118;8.952;2022-09-09T10:22:09;100121.88;;;21.90;100.00
4586;BME280;2305;50.118;8.952;2022-09-09T10:25:19;100126.84;;;21.99;100.00
4586;BME280;2305;50.118;8.952;2022-09-09T10:28:05;100115.13;;;22.33;100.00
4586;BME280;2305;50.118;8.952;2022-09-09T10:30:45;100113.47;;;22.38;100.00
4586;BME280;2305;50.118;8.952;2022-09-09T10:33:23;100115.53;;;22.36;100.00
4586;BME280;2305;50.118;8.952;2022-09-09T10:36:01;100125.84;;;22.13;100.00
4586;BME280;2305;50.118;8.952;2022-09-09T10:38:39;100119.75;;;21.79;100.00
4586;BME280;2305;50.118;8.952;2022-09-09T10:41:15;100115.56;;;21.63;100.00
4586;BME280;2305;50.118;8.952;2022-09-09T10:44:16;100121.91;;;21.49;100.00
4586;BME280;2305;50.118;8.952;2022-09-09T10:47:08;100104.97;;;21.55;100.00
4586;BME280;2305;50.118;8.952;2022-09-09T10:49:59;100100.94;;;21.25;100.00
4586;BME280;2305;50.118;8.952;2022-09-09T10:52:38;100090.44;;;21.30;100.00
4586;BME280;2305;50.118;8.952;2022-09-09T10:55:14;100098.84;;;21.21;100.00
4586;BME280;2305;50.118;8.952;2022-09-09T10:57:45;100108.03;;;21.05;100.00
4586;BME280;2305;50.118;8.952;2022-09-09T11:00:17;100099.28;;;21.24;100.00
4586;BME280;2305;50.118;8.952;2022-09-09T11:02:49;100100.81;;;21.40;100.00
4586;BME280;2305;50.118;8.952;2022-09-09T11:05:22;100095.28;;;21.48;100.00
4586;BME280;2305;50.118;8.952;2022-09-09T11:07:57;100088.34;;;21.66;100.00
4586;BME280;2305;50.118;8.952;2022-09-09T11:10:33;100085.09;;;21.90;100.00
4586;BME280;2305;50.118;8.952;2022-09-09T11:13:10;100077.13;;;22.10;100.00
4586;BME280;2305;50.118;8.952;2022-09-09T11:15:45;100083.72;;;22.27;100.00
4586;BME280;2305;50.118;8.952;2022-09-09T11:18:19;100087.06;;;22.48;100.00
4586;BME280;2305;50.118;8.952;2022-09-09T11:20:51;100092.84;;;22.84;100.00
4586;BME280;2305;50.118;8.952;2022-09-09T11:23:27;100092.13;;;23.15;100.00
4586;BME280;2305;50.118;8.952;2022-09-09T11:26:02;100086.94;;;23.26;100.00
4586;BME280;2305;50.118;8.952;2022-09-09T11:28:39;100095.25;;;23.25;100.00
4586;BME280;2305;50.118;8.952;2022-09-09T11:31:23;100084.66;;;23.36;100.00
4586;BME280;2305;50.118;8.952;2022-09-09T11:34:07;100088.03;;;23.63;100.00
4586;BME280;2305;50.118;8.952;2022-09-09T11:36:50;100093.03;;;23.59;100.00
4586;BME280;2305;50.118;8.952;2022-09-09T11:39:36;100089.03;;;23.75;100.00
4586;BME280;2305;50.118;8.952;2022-09-09T11:42:17;100088.56;;;23.84;100.00
4586;BME280;2305;50.118;8.952;2022-09-09T11:44:46;100089.13;;;23.99;100.00
4586;BME280;2305;50.118;8.952;2022-09-09T11:47:23;100094.47;;;24.06;100.00
4586;BME280;2305;50.118;8.952;2022-09-09T11:50:07;100093.94;;;24.22;100.00
4586;BME280;2305;50.118;8.952;2022-09-09T11:52:43;100101.72;;;24.36;100.00
4586;BME280;2305;50.118;8.952;2022-09-09T11:55:25;100114.47;;;24.23;100.00
4586;BME280;2305;50.118;8.952;2022-09-09T11:57:57;100101.03;;;24.16;100.00
4586;BME280;2305;50.118;8.952;2022-09-09T12:00:34;100102.34;;;24.01;100.00
4586;BME280;2305;50.118;8.952;2022-09-09T12:03:03;100104.84;;;24.02;100.00
4586;BME280;2305;50.118;8.952;2022-09-09T12:05:37;100097.88;;;23.88;100.00
4586;BME280;2305;50.118;8.952;2022-09-09T12:08:10;100097.91;;;23.75;100.00
4586;BME280;2305;50.118;8.952;2022-09-09T12:10:39;100093.38;;;23.69;100.00
4586;BME280;2305;50.118;8.952;2022-09-09T12:13:14;100092.53;;;23.75;100.00
4586;BME280;2305;50.118;8.952;2022-09-09T12:15:47;100078.03;;;23.76;100.00
4586;BME280;2305;50.118;8.952;2022-09-09T12:18:22;100082.41;;;23.71;100.00
4586;BME280;2305;50.118;8.952;2022-09-09T12:20:57;100088.84;;;23.70;100.00
4586;BME280;2305;50.118;8.952;2022-09-09T12:23:38;100085.97;;;23.65;100.00
4586;BME280;2305;50.118;8.952;2022-09-09T12:26:22;100088.66;;;23.65;100.00
4586;BME280;2305;50.118;8.952;2022-09-09T12:29:10;100090.41;;;23.46;100.00
4586;BME280;2305;50.118;8.952;2022-09-09T12:31:44;100087.34;;;23.30;100.00
4586;BME280;2305;50.118;8.952;2022-09-09T12:34:16;100090.91;;;23.04;100.00
4586;BME280;2305;50.118;8.952;2022-09-09T12:36:49;100099.44;;;22.95;100.00
4586;BME280;2305;50.118;8.952;2022-09-09T12:39:31;100108.53;;;22.87;100.00
4586;BME280;2305;50.118;8.952;2022-09-09T12:42:00;100102.31;;;22.93;100.00
4586;BME280;2305;50.118;8.952;2022-09-09T12:44:30;100092.22;;;22.63;100.00
4586;BME280;2305;50.118;8.952;2022-09-09T12:47:01;100079.00;;;22.35;100.00
4586;BME280;2305;50.118;8.952;2022-09-09T12:49:32;100077.72;;;22.18;100.00
4586;BME280;2305;50.118;8.952;2022-09-09T12:52:07;100081.03;;;22.07;100.00
4586;BME280;2305;50.118;8.952;2022-09-09T12:54:37;100084.72;;;21.93;100.00
4586;BME280;2305;50.118;8.952;2022-09-09T12:57:12;100085.72;;;21.86;100.00
4586;BME280;2305;50.118;8.952;2022-09-09T12:59:41;100083.66;;;21.81;100.00
4586;BME280;2305;50.118;8.952;2022-09-09T13:02:18;100077.03;;;21.77;100.00
4586;BME280;2305;50.118;8.952;2022-09-09T13:04:46;100077.63;;;21.73;100.00
4586;BME280;2305;50.118;8.952;2022-09-09T13:07:20;100065.06;;;21.67;100.00
4586;BME280;2305;50.118;8.952;2022-09-09T13:09:49;100078.41;;;21.60;100.00
4586;BME280;2305;50.118;8.952;2022-09-09T13:12:19;100072.81;;;21.55;100.00
4586;BME280;2305;50.118;8.952;2022-09-09T13:14:51;100082.28;;;21.51;100.00
4586;BME280;2305;50.118;8.952;2022-09-09T13:17:22;100103.13;;;21.49;100.00
4586;BME280;2305;50.118;8.952;2022-09-09T13:19:51;100109.03;;;21.32;100.00
4586;BME280;2305;50.118;8.952;2022-09-09T13:22:22;100093.72;;;21.26;100.00
4586;BME280;2305;50.118;8.952;2022-09-09T13:25:04;100109.72;;;21.06;100.00
4586;BME280;2305;50.118;8.952;2022-09-09T13:27:36;100098.16;;;21.06;100.00
4586;BME280;2305;50.118;8.952;2022-09-09T13:30:24;100099.38;;;21.03;100.00
4586;BME280;2305;50.118;8.952;2022-09-09T13:33:04;100111.88;;;20.90;100.00
4586;BME280;2305;50.118;8.952;2022-09-09T13:35:45;100107.88;;;20.86;100.00